sensor_id;sensor_type;location;lat;lon;timestamp;P1;durP1;ratioP1;P2;durP2;ratioP2
74908;SDS011;63468;52.058;4.824;2023-05-28T00:02:23;19.73;;;14.40;;
74908;SDS011;63468;52.058;4.824;2023-05-28T00:04:48;31.95;;;14.77;;
74908;SDS011;63468;52.058;4.824;2023-05-28T00:07:14;31.50;;;15.07;;
74908;SDS011;63468;52.058;4.824;2023-05-28T00:09:39;33.75;;;14.48;;
74908;SDS011;63468;52.058;4.824;2023-05-28T00:12:06;24.58;;;13.63;;
74908;SDS011;63468;52.058;4.824;2023-05-28T00:14:32;26.75;;;14.00;;
74908;SDS011;63468;52.058;4.824;2023-05-28T00:16:58;24.13;;;15.32;;
74908;SDS011;63468;52.058;4.824;2023-05-28T00:19:23;28.85;;;13.48;;
74908;SDS011;63468;52.058;4.824;2023-05-28T00:21:48;27.90;;;14.98;;
74908;SDS011;63468;52.058;4.824;2023-05-28T00:24:14;28.63;;;15.10;;
74908;SDS011;63468;52.058;4.824;2023-05-28T00:26:39;34.53;;;16.15;;
74908;SDS011;63468;52.058;4.824;2023-05-28T00:29:05;24.70;;;14.80;;
74908;SDS011;63468;52.058;4.824;2023-05-28T00:31:30;34.35;;;15.20;;
74908;SDS011;63468;52.058;4.824;2023-05-28T00:33:55;21.20;;;15.02;;
74908;SDS011;63468;52.058;4.824;2023-05-28T00:36:21;28.77;;;14.60;;
74908;SDS011;63468;52.058;4.824;2023-05-28T00:38:47;31.00;;;15.25;;
74908;SDS011;63468;52.058;4.824;2023-05-28T00:41:12;29.00;;;14.75;;
74908;SDS011;63468;52.058;4.824;2023-05-28T00:43:37;24.95;;;13.85;;
74908;SDS011;63468;52.058;4.824;2023-05-28T00:46:03;17.23;;;14.00;;
74908;SDS011;63468;52.058;4.824;2023-05-28T00:48:31;23.08;;;13.65;;
74908;SDS011;63468;52.058;4.824;2023-05-28T00:50:57;27.10;;;13.13;;
74908;SDS011;63468;52.058;4.824;2023-05-28T00:53:23;22.60;;;12.23;;
74908;SDS011;63468;52.058;4.824;2023-05-28T00:55:49;24.40;;;13.02;;
74908;SDS011;63468;52.058;4.824;2023-05-28T00:58:14;19.95;;;12.85;;
74908;SDS011;63468;52.058;4.824;2023-05-28T01:00:41;28.63;;;13.38;;
74908;SDS011;63468;52.058;4.824;2023-05-28T01:03:08;25.05;;;13.88;;
74908;SDS011;63468;52.058;4.824;2023-05-28T01:05:34;23.77;;;12.45;;
74908;SDS011;63468;52.058;4.824;2023-05-28T01:08:00;24.63;;;12.88;;
74908;SDS011;63468;52.058;4.824;2023-05-28T01:10:26;22.98;;;13.43;;
74908;SDS011;63468;52.058;4.824;2023-05-28T01:12:52;30.08;;;12.90;;
74908;SDS011;63468;52.058;4.824;2023-05-28T01:15:18;28.45;;;12.77;;
74908;SDS011;63468;52.058;4.824;2023-05-28T01:17:43;26.35;;;13.00;;
74908;SDS011;63468;52.058;4.824;2023-05-28T01:20:09;22.65;;;13.00;;
74908;SDS011;63468;52.058;4.824;2023-05-28T01:22:38;23.13;;;13.57;;
74908;SDS011;63468;52.058;4.824;2023-05-28T01:25:04;31.35;;;13.00;;
74908;SDS011;63468;52.058;4.824;2023-05-28T01:27:35;25.73;;;13.48;;
74908;SDS011;63468;52.058;4.824;2023-05-28T01:30:03;27.30;;;13.73;;
74908;SDS011;63468;52.058;4.824;2023-05-28T01:32:32;26.08;;;13.27;;
74908;SDS011;63468;52.058;4.824;2023-05-28T01:34:57;24.80;;;13.27;;
74908;SDS011;63468;52.058;4.824;2023-05-28T01:37:23;27.27;;;13.55;;
74908;SDS011;63468;52.058;4.824;2023-05-28T01:39:49;21.70;;;12.00;;
74908;SDS011;63468;52.058;4.824;2023-05-28T01:42:16;29.00;;;13.20;;
74908;SDS011;63468;52.058;4.824;2023-05-28T01:44:42;23.65;;;13.40;;
74908;SDS011;63468;52.058;4.824;2023-05-28T01:47:07;24.90;;;13.60;;
74908;SDS011;63468;52.058;4.824;2023-05-28T01:49:33;27.85;;;14.68;;
74908;SDS011;63468;52.058;4.824;2023-05-28T01:51:58;26.35;;;15.43;;
74908;SDS011;63468;52.058;4.824;2023-05-28T01:54:24;25.02;;;15.10;;
74908;SDS011;63468;52.058;4.824;2023-05-28T01:56:49;27.65;;;14.43;;
74908;SDS011;63468;52.058;4.824;2023-05-28T01:59:14;21.00;;;14.27;;
74908;SDS011;63468;52.058;4.824;2023-05-28T02:01:40;25.80;;;15.38;;
74908;SDS011;63468;52.058;4.824;2023-05-28T02:04:05;24.17;;;15.80;;
74908;SDS011;63468;52.058;4.824;2023-05-28T02:06:31;31.55;;;15.75;;
74908;SDS011;63468;52.058;4.824;2023-05-28T02:08:57;24.88;;;14.75;;
74908;SDS011;63468;52.058;4.824;2023-05-28T02:11:23;30.05;;;14.52;;
74908;SDS011;63468;52.058;4.824;2023-05-28T02:13:48;26.08;;;14.13;;
74908;SDS011;63468;52.058;4.824;2023-05-28T02:16:14;28.55;;;15.02;;
74908;SDS011;63468;52.058;4.824;2023-05-28T02:18:45;30.80;;;14.40;;
74908;SDS011;63468;52.058;4.824;2023-05-28T02:21:11;25.73;;;14.10;;
74908;SDS011;63468;52.058;4.824;2023-05-28T02:23:44;33.05;;;14.38;;
74908;SDS011;63468;52.058;4.824;2023-05-28T02:26:10;28.58;;;14.15;;
74908;SDS011;63468;52.058;4.824;2023-05-28T02:28:35;24.17;;;14.32;;
74908;SDS011;63468;52.058;4.824;2023-05-28T02:31:01;22.90;;;14.93;;
74908;SDS011;63468;52.058;4.824;2023-05-28T02:33:26;32.42;;;15.07;;
74908;SDS011;63468;52.058;4.824;2023-05-28T02:35:51;26.75;;;14.48;;
74908;SDS011;63468;52.058;4.824;2023-05-28T02:38:17;25.83;;;14.10;;
74908;SDS011;63468;52.058;4.824;2023-05-28T02:40:42;24.95;;;14.32;;
74908;SDS011;63468;52.058;4.824;2023-05-28T02:43:07;24.38;;;14.65;;
74908;SDS011;63468;52.058;4.824;2023-05-28T02:45:33;30.55;;;16.20;;
74908;SDS011;63468;52.058;4.824;2023-05-28T02:47:58;27.50;;;15.32;;
74908;SDS011;63468;52.058;4.824;2023-05-28T02:50:23;29.45;;;15.05;;
74908;SDS011;63468;52.058;4.824;2023-05-28T02:52:49;22.50;;;13.88;;
74908;SDS011;63468;52.058;4.824;2023-05-28T02:55:14;25.15;;;14.50;;
74908;SDS011;63468;52.058;4.824;2023-05-28T02:57:40;24.85;;;14.70;;
74908;SDS011;63468;52.058;4.824;2023-05-28T03:00:05;31.48;;;15.25;;
74908;SDS011;63468;52.058;4.824;2023-05-28T03:02:34;18.80;;;13.10;;
74908;SDS011;63468;52.058;4.824;2023-05-28T03:05:00;29.77;;;15.40;;
74908;SDS011;63468;52.058;4.824;2023-05-28T03:07:27;32.67;;;14.65;;
74908;SDS011;63468;52.058;4.824;2023-05-28T03:09:53;35.67;;;15.85;;
74908;SDS011;63468;52.058;4.824;2023-05-28T03:12:18;22.45;;;15.20;;
74908;SDS011;63468;52.058;4.824;2023-05-28T03:14:44;22.73;;;13.88;;
74908;SDS011;63468;52.058;4.824;2023-05-28T03:17:09;27.02;;;14.77;;
74908;SDS011;63468;52.058;4.824;2023-05-28T03:19:34;24.08;;;14.07;;
74908;SDS011;63468;52.058;4.824;2023-05-28T03:22:01;30.88;;;14.80;;
74908;SDS011;63468;52.058;4.824;2023-05-28T03:24:27;21.13;;;13.27;;
74908;SDS011;63468;52.058;4.824;2023-05-28T03:26:52;21.17;;;13.40;;
74908;SDS011;63468;52.058;4.824;2023-05-28T03:29:17;24.02;;;13.73;;
74908;SDS011;63468;52.058;4.824;2023-05-28T03:31:44;24.55;;;13.90;;
74908;SDS011;63468;52.058;4.824;2023-05-28T03:34:10;21.27;;;12.52;;
74908;SDS011;63468;52.058;4.824;2023-05-28T03:36:36;25.10;;;13.27;;
74908;SDS011;63468;52.058;4.824;2023-05-28T03:39:02;24.58;;;13.40;;
74908;SDS011;63468;52.058;4.824;2023-05-28T03:41:29;25.98;;;13.52;;
74908;SDS011;63468;52.058;4.824;2023-05-28T03:43:54;24.88;;;13.43;;
74908;SDS011;63468;52.058;4.824;2023-05-28T03:46:19;26.27;;;13.55;;
74908;SDS011;63468;52.058;4.824;2023-05-28T03:48:45;25.90;;;12.40;;
74908;SDS011;63468;52.058;4.824;2023-05-28T03:51:10;23.10;;;11.50;;
74908;SDS011;63468;52.058;4.824;2023-05-28T03:53:35;26.00;;;12.95;;
74908;SDS011;63468;52.058;4.824;2023-05-28T03:56:01;34.47;;;15.35;;
74908;SDS011;63468;52.058;4.824;2023-05-28T03:58:26;27.35;;;12.15;;
74908;SDS011;63468;52.058;4.824;2023-05-28T04:00:52;32.25;;;13.32;;
74908;SDS011;63468;52.058;4.824;2023-05-28T04:03:17;25.58;;;12.95;;
74908;SDS011;63468;52.058;4.824;2023-05-28T04:05:42;28.60;;;13.93;;
74908;SDS011;63468;52.058;4.824;2023-05-28T04:08:07;26.33;;;13.15;;
74908;SDS011;63468;52.058;4.824;2023-05-28T04:10:33;24.23;;;14.02;;
74908;SDS011;63468;52.058;4.824;2023-05-28T04:12:58;31.30;;;13.80;;
74908;SDS011;63468;52.058;4.824;2023-05-28T04:15:24;25.30;;;13.73;;
74908;SDS011;63468;52.058;4.824;2023-05-28T04:17:49;26.88;;;13.80;;
74908;SDS011;63468;52.058;4.824;2023-05-28T04:20:15;27.40;;;13.70;;
74908;SDS011;63468;52.058;4.824;2023-05-28T04:22:40;23.90;;;14.10;;
74908;SDS011;63468;52.058;4.824;2023-05-28T04:25:05;24.60;;;14.73;;
74908;SDS011;63468;52.058;4.824;2023-05-28T04:27:31;25.65;;;13.60;;
74908;SDS011;63468;52.058;4.824;2023-05-28T04:29:56;26.35;;;14.43;;
74908;SDS011;63468;52.058;4.824;2023-05-28T04:32:22;23.38;;;14.07;;
74908;SDS011;63468;52.058;4.824;2023-05-28T04:34:48;23.88;;;12.82;;
74908;SDS011;63468;52.058;4.824;2023-05-28T04:37:13;21.45;;;14.32;;
74908;SDS011;63468;52.058;4.824;2023-05-28T04:39:40;25.25;;;13.88;;
74908;SDS011;63468;52.058;4.824;2023-05-28T04:42:05;29.10;;;14.30;;
74908;SDS011;63468;52.058;4.824;2023-05-28T04:44:34;30.73;;;13.75;;
74908;SDS011;63468;52.058;4.824;2023-05-28T04:46:59;27.08;;;14.43;;
74908;SDS011;63468;52.058;4.824;2023-05-28T04:49:25;17.35;;;11.15;;
74908;SDS011;63468;52.058;4.824;2023-05-28T04:51:51;24.60;;;11.82;;
74908;SDS011;63468;52.058;4.824;2023-05-28T04:54:16;24.23;;;11.10;;
74908;SDS011;63468;52.058;4.824;2023-05-28T04:56:41;21.67;;;12.63;;
74908;SDS011;63468;52.058;4.824;2023-05-28T04:59:07;17.25;;;9.80;;
74908;SDS011;63468;52.058;4.824;2023-05-28T05:01:34;21.95;;;11.02;;
74908;SDS011;63468;52.058;4.824;2023-05-28T05:04:00;21.83;;;10.48;;
74908;SDS011;63468;52.058;4.824;2023-05-28T05:06:26;20.00;;;10.95;;
74908;SDS011;63468;52.058;4.824;2023-05-28T05:08:52;23.30;;;12.48;;
74908;SDS011;63468;52.058;4.824;2023-05-28T05:11:18;21.23;;;12.23;;
74908;SDS011;63468;52.058;4.824;2023-05-28T05:13:44;23.73;;;13.32;;
74908;SDS011;63468;52.058;4.824;2023-05-28T05:16:09;22.75;;;14.10;;
74908;SDS011;63468;52.058;4.824;2023-05-28T05:18:35;20.23;;;14.10;;
74908;SDS011;63468;52.058;4.824;2023-05-28T05:21:00;23.60;;;14.60;;
74908;SDS011;63468;52.058;4.824;2023-05-28T05:23:26;24.10;;;15.05;;
74908;SDS011;63468;52.058;4.824;2023-05-28T05:25:51;24.67;;;15.30;;
74908;SDS011;63468;52.058;4.824;2023-05-28T05:28:17;21.27;;;14.48;;
74908;SDS011;63468;52.058;4.824;2023-05-28T05:30:42;32.33;;;14.65;;
74908;SDS011;63468;52.058;4.824;2023-05-28T05:33:08;20.15;;;14.23;;
74908;SDS011;63468;52.058;4.824;2023-05-28T05:35:33;20.67;;;14.35;;
74908;SDS011;63468;52.058;4.824;2023-05-28T05:37:58;21.40;;;13.70;;
74908;SDS011;63468;52.058;4.824;2023-05-28T05:40:24;26.10;;;14.25;;
74908;SDS011;63468;52.058;4.824;2023-05-28T05:42:49;18.65;;;14.68;;
74908;SDS011;63468;52.058;4.824;2023-05-28T05:45:14;20.48;;;12.52;;
74908;SDS011;63468;52.058;4.824;2023-05-28T05:47:40;21.35;;;13.23;;
74908;SDS011;63468;52.058;4.824;2023-05-28T05:50:05;24.55;;;14.68;;
74908;SDS011;63468;52.058;4.824;2023-05-28T05:52:31;24.45;;;13.57;;
74908;SDS011;63468;52.058;4.824;2023-05-28T05:54:56;19.58;;;13.23;;
74908;SDS011;63468;52.058;4.824;2023-05-28T05:57:22;20.85;;;13.00;;
74908;SDS011;63468;52.058;4.824;2023-05-28T05:59:47;22.98;;;12.10;;
74908;SDS011;63468;52.058;4.824;2023-05-28T06:02:12;22.02;;;12.77;;
74908;SDS011;63468;52.058;4.824;2023-05-28T06:04:38;20.85;;;12.05;;
74908;SDS011;63468;52.058;4.824;2023-05-28T06:07:03;21.70;;;12.65;;
74908;SDS011;63468;52.058;4.824;2023-05-28T06:09:29;21.02;;;11.85;;
74908;SDS011;63468;52.058;4.824;2023-05-28T06:11:55;22.17;;;11.50;;
74908;SDS011;63468;52.058;4.824;2023-05-28T06:14:21;20.30;;;12.48;;
74908;SDS011;63468;52.058;4.824;2023-05-28T06:16:46;21.20;;;12.63;;
74908;SDS011;63468;52.058;4.824;2023-05-28T06:19:11;24.20;;;11.82;;
74908;SDS011;63468;52.058;4.824;2023-05-28T06:21:36;22.60;;;12.93;;
74908;SDS011;63468;52.058;4.824;2023-05-28T06:24:02;21.30;;;12.43;;
74908;SDS011;63468;52.058;4.824;2023-05-28T06:26:28;20.45;;;12.52;;
74908;SDS011;63468;52.058;4.824;2023-05-28T06:28:54;21.77;;;13.23;;
74908;SDS011;63468;52.058;4.824;2023-05-28T06:31:19;21.25;;;12.43;;
74908;SDS011;63468;52.058;4.824;2023-05-28T06:33:44;23.00;;;11.88;;
74908;SDS011;63468;52.058;4.824;2023-05-28T06:36:10;24.60;;;12.15;;
74908;SDS011;63468;52.058;4.824;2023-05-28T06:38:36;26.92;;;11.82;;
74908;SDS011;63468;52.058;4.824;2023-05-28T06:41:01;20.55;;;12.10;;
74908;SDS011;63468;52.058;4.824;2023-05-28T06:43:26;26.63;;;12.10;;
74908;SDS011;63468;52.058;4.824;2023-05-28T06:45:52;17.88;;;12.43;;
74908;SDS011;63468;52.058;4.824;2023-05-28T06:48:17;22.38;;;12.50;;
74908;SDS011;63468;52.058;4.824;2023-05-28T06:50:42;22.83;;;13.05;;
74908;SDS011;63468;52.058;4.824;2023-05-28T06:53:08;25.17;;;13.07;;
74908;SDS011;63468;52.058;4.824;2023-05-28T06:55:33;23.33;;;13.35;;
74908;SDS011;63468;52.058;4.824;2023-05-28T06:57:58;18.70;;;12.50;;
74908;SDS011;63468;52.058;4.824;2023-05-28T07:00:23;18.85;;;12.00;;
74908;SDS011;63468;52.058;4.824;2023-05-28T07:02:49;18.90;;;12.13;;
74908;SDS011;63468;52.058;4.824;2023-05-28T07:05:14;22.70;;;12.82;;
74908;SDS011;63468;52.058;4.824;2023-05-28T07:07:39;21.13;;;12.50;;
74908;SDS011;63468;52.058;4.824;2023-05-28T07:10:05;19.27;;;12.20;;
74908;SDS011;63468;52.058;4.824;2023-05-28T07:12:31;25.55;;;13.57;;
74908;SDS011;63468;52.058;4.824;2023-05-28T07:14:56;21.77;;;12.70;;
74908;SDS011;63468;52.058;4.824;2023-05-28T07:17:22;23.98;;;12.60;;
74908;SDS011;63468;52.058;4.824;2023-05-28T07:19:47;20.70;;;12.48;;
74908;SDS011;63468;52.058;4.824;2023-05-28T07:22:13;20.88;;;12.85;;
74908;SDS011;63468;52.058;4.824;2023-05-28T07:24:38;26.25;;;13.52;;
74908;SDS011;63468;52.058;4.824;2023-05-28T07:27:04;20.73;;;12.90;;
74908;SDS011;63468;52.058;4.824;2023-05-28T07:29:29;18.58;;;13.05;;
74908;SDS011;63468;52.058;4.824;2023-05-28T07:31:55;19.35;;;11.93;;
74908;SDS011;63468;52.058;4.824;2023-05-28T07:34:20;21.23;;;13.13;;
74908;SDS011;63468;52.058;4.824;2023-05-28T07:36:46;19.05;;;13.40;;
74908;SDS011;63468;52.058;4.824;2023-05-28T07:39:11;24.20;;;13.13;;
74908;SDS011;63468;52.058;4.824;2023-05-28T07:41:37;24.63;;;13.43;;
74908;SDS011;63468;52.058;4.824;2023-05-28T07:44:02;21.92;;;13.45;;
74908;SDS011;63468;52.058;4.824;2023-05-28T07:46:28;20.45;;;13.00;;
74908;SDS011;63468;52.058;4.824;2023-05-28T07:48:54;25.73;;;14.23;;
74908;SDS011;63468;52.058;4.824;2023-05-28T07:51:19;17.63;;;12.98;;
74908;SDS011;63468;52.058;4.824;2023-05-28T07:53:45;23.30;;;13.68;;
74908;SDS011;63468;52.058;4.824;2023-05-28T07:56:11;22.02;;;13.68;;
74908;SDS011;63468;52.058;4.824;2023-05-28T07:58:36;21.83;;;13.15;;
74908;SDS011;63468;52.058;4.824;2023-05-28T08:01:02;25.85;;;13.90;;
74908;SDS011;63468;52.058;4.824;2023-05-28T08:03:27;20.88;;;13.77;;
74908;SDS011;63468;52.058;4.824;2023-05-28T08:05:53;23.05;;;13.30;;
74908;SDS011;63468;52.058;4.824;2023-05-28T08:08:19;19.80;;;13.38;;
74908;SDS011;63468;52.058;4.824;2023-05-28T08:10:44;20.48;;;12.77;;
74908;SDS011;63468;52.058;4.824;2023-05-28T08:13:10;18.25;;;12.68;;
74908;SDS011;63468;52.058;4.824;2023-05-28T08:15:36;18.63;;;13.00;;
74908;SDS011;63468;52.058;4.824;2023-05-28T08:18:01;16.90;;;12.20;;
74908;SDS011;63468;52.058;4.824;2023-05-28T08:20:27;18.05;;;11.75;;
74908;SDS011;63468;52.058;4.824;2023-05-28T08:22:54;20.13;;;12.63;;
74908;SDS011;63468;52.058;4.824;2023-05-28T08:25:19;19.58;;;12.57;;
74908;SDS011;63468;52.058;4.824;2023-05-28T08:27:45;18.98;;;12.73;;
74908;SDS011;63468;52.058;4.824;2023-05-28T08:30:10;20.35;;;13.40;;
74908;SDS011;63468;52.058;4.824;2023-05-28T08:32:36;17.77;;;11.73;;
74908;SDS011;63468;52.058;4.824;2023-05-28T08:35:02;17.77;;;12.77;;
74908;SDS011;63468;52.058;4.824;2023-05-28T08:37:27;24.23;;;13.05;;
74908;SDS011;63468;52.058;4.824;2023-05-28T08:39:52;15.88;;;11.90;;
74908;SDS011;63468;52.058;4.824;2023-05-28T08:42:18;24.55;;;13.50;;
74908;SDS011;63468;52.058;4.824;2023-05-28T08:44:43;23.30;;;12.70;;
74908;SDS011;63468;52.058;4.824;2023-05-28T08:47:08;18.23;;;13.10;;
74908;SDS011;63468;52.058;4.824;2023-05-28T08:49:52;20.67;;;13.43;;
74908;SDS011;63468;52.058;4.824;2023-05-28T08:52:19;25.98;;;13.20;;
74908;SDS011;63468;52.058;4.824;2023-05-28T08:54:45;17.02;;;12.02;;
74908;SDS011;63468;52.058;4.824;2023-05-28T08:57:11;18.17;;;11.77;;
74908;SDS011;63468;52.058;4.824;2023-05-28T08:59:36;15.80;;;11.20;;
74908;SDS011;63468;52.058;4.824;2023-05-28T09:02:02;18.75;;;12.07;;
74908;SDS011;63468;52.058;4.824;2023-05-28T09:04:28;18.40;;;11.88;;
74908;SDS011;63468;52.058;4.824;2023-05-28T09:06:53;15.77;;;11.95;;
74908;SDS011;63468;52.058;4.824;2023-05-28T09:09:19;16.65;;;12.32;;
74908;SDS011;63468;52.058;4.824;2023-05-28T09:11:44;16.52;;;11.98;;
74908;SDS011;63468;52.058;4.824;2023-05-28T09:14:11;19.85;;;11.95;;
74908;SDS011;63468;52.058;4.824;2023-05-28T09:16:41;17.55;;;11.57;;
74908;SDS011;63468;52.058;4.824;2023-05-28T09:19:07;19.58;;;12.15;;
74908;SDS011;63468;52.058;4.824;2023-05-28T09:21:33;18.98;;;11.75;;
74908;SDS011;63468;52.058;4.824;2023-05-28T09:24:01;16.20;;;11.75;;
74908;SDS011;63468;52.058;4.824;2023-05-28T09:26:29;16.17;;;12.75;;
74908;SDS011;63468;52.058;4.824;2023-05-28T09:28:55;17.70;;;11.98;;
74908;SDS011;63468;52.058;4.824;2023-05-28T09:31:27;16.45;;;12.27;;
74908;SDS011;63468;52.058;4.824;2023-05-28T09:33:59;17.58;;;12.13;;
74908;SDS011;63468;52.058;4.824;2023-05-28T09:36:29;19.60;;;12.57;;
74908;SDS011;63468;52.058;4.824;2023-05-28T09:38:57;19.08;;;12.48;;
74908;SDS011;63468;52.058;4.824;2023-05-28T09:41:23;20.25;;;14.07;;
74908;SDS011;63468;52.058;4.824;2023-05-28T09:43:57;21.02;;;13.55;;
74908;SDS011;63468;52.058;4.824;2023-05-28T09:46:27;16.35;;;12.65;;
74908;SDS011;63468;52.058;4.824;2023-05-28T09:48:54;12.73;;;11.43;;
74908;SDS011;63468;52.058;4.824;2023-05-28T09:51:20;17.63;;;12.93;;
74908;SDS011;63468;52.058;4.824;2023-05-28T09:53:45;19.73;;;13.10;;
74908;SDS011;63468;52.058;4.824;2023-05-28T09:56:12;18.90;;;12.88;;
74908;SDS011;63468;52.058;4.824;2023-05-28T09:58:38;19.85;;;13.43;;
74908;SDS011;63468;52.058;4.824;2023-05-28T10:01:05;19.70;;;13.50;;
74908;SDS011;63468;52.058;4.824;2023-05-28T10:03:35;23.13;;;13.30;;
74908;SDS011;63468;52.058;4.824;2023-05-28T10:06:14;18.98;;;13.60;;
74908;SDS011;63468;52.058;4.824;2023-05-28T10:08:41;20.50;;;13.25;;
74908;SDS011;63468;52.058;4.824;2023-05-28T10:11:09;16.08;;;13.80;;
74908;SDS011;63468;52.058;4.824;2023-05-28T10:13:34;19.67;;;12.85;;
74908;SDS011;63468;52.058;4.824;2023-05-28T10:16:00;18.42;;;13.63;;
74908;SDS011;63468;52.058;4.824;2023-05-28T10:18:25;19.40;;;15.07;;
74908;SDS011;63468;52.058;4.824;2023-05-28T10:20:51;16.45;;;13.10;;
74908;SDS011;63468;52.058;4.824;2023-05-28T10:23:17;17.27;;;13.27;;
74908;SDS011;63468;52.058;4.824;2023-05-28T10:25:43;19.35;;;14.43;;
74908;SDS011;63468;52.058;4.824;2023-05-28T10:28:09;22.10;;;14.15;;
74908;SDS011;63468;52.058;4.824;2023-05-28T10:30:39;18.38;;;13.32;;
74908;SDS011;63468;52.058;4.824;2023-05-28T10:33:08;18.73;;;13.70;;
74908;SDS011;63468;52.058;4.824;2023-05-28T10:38:14;23.35;;;14.15;;
74908;SDS011;63468;52.058;4.824;2023-05-28T10:40:40;20.02;;;13.40;;
74908;SDS011;63468;52.058;4.824;2023-05-28T10:43:05;20.13;;;12.82;;
74908;SDS011;63468;52.058;4.824;2023-05-28T10:45:34;19.60;;;13.95;;
74908;SDS011;63468;52.058;4.824;2023-05-28T10:48:00;19.35;;;13.02;;
74908;SDS011;63468;52.058;4.824;2023-05-28T10:50:26;23.63;;;14.20;;
74908;SDS011;63468;52.058;4.824;2023-05-28T10:53:07;20.27;;;13.68;;
74908;SDS011;63468;52.058;4.824;2023-05-28T10:55:50;18.92;;;14.65;;
74908;SDS011;63468;52.058;4.824;2023-05-28T11:06:08;22.77;;;13.77;;
74908;SDS011;63468;52.058;4.824;2023-05-28T11:08:43;18.90;;;13.35;;
74908;SDS011;63468;52.058;4.824;2023-05-28T11:11:12;17.70;;;13.75;;
74908;SDS011;63468;52.058;4.824;2023-05-28T11:13:40;19.40;;;14.93;;
74908;SDS011;63468;52.058;4.824;2023-05-28T11:16:10;17.40;;;13.75;;
74908;SDS011;63468;52.058;4.824;2023-05-28T11:18:36;19.05;;;13.48;;
74908;SDS011;63468;52.058;4.824;2023-05-28T11:21:03;21.50;;;14.00;;
74908;SDS011;63468;52.058;4.824;2023-05-28T11:23:34;20.35;;;12.98;;
74908;SDS011;63468;52.058;4.824;2023-05-28T11:26:01;20.33;;;13.48;;
74908;SDS011;63468;52.058;4.824;2023-05-28T11:28:27;18.42;;;13.45;;
74908;SDS011;63468;52.058;4.824;2023-05-28T11:30:55;21.00;;;13.82;;
74908;SDS011;63468;52.058;4.824;2023-05-28T11:33:21;22.25;;;13.38;;
74908;SDS011;63468;52.058;4.824;2023-05-28T11:35:55;19.35;;;13.23;;
74908;SDS011;63468;52.058;4.824;2023-05-28T11:38:21;23.55;;;13.95;;
74908;SDS011;63468;52.058;4.824;2023-05-28T11:40:47;21.88;;;13.57;;
74908;SDS011;63468;52.058;4.824;2023-05-28T11:43:12;19.73;;;12.80;;
74908;SDS011;63468;52.058;4.824;2023-05-28T11:45:38;19.05;;;13.30;;
74908;SDS011;63468;52.058;4.824;2023-05-28T11:48:05;17.60;;;13.07;;
74908;SDS011;63468;52.058;4.824;2023-05-28T11:50:35;18.23;;;13.95;;
74908;SDS011;63468;52.058;4.824;2023-05-28T11:53:01;16.67;;;13.70;;
74908;SDS011;63468;52.058;4.824;2023-05-28T11:55:26;21.25;;;14.40;;
74908;SDS011;63468;52.058;4.824;2023-05-28T11:57:52;17.98;;;12.80;;
74908;SDS011;63468;52.058;4.824;2023-05-28T12:00:28;16.58;;;12.30;;
74908;SDS011;63468;52.058;4.824;2023-05-28T12:02:56;16.35;;;12.63;;
74908;SDS011;63468;52.058;4.824;2023-05-28T12:05:22;17.15;;;13.77;;
74908;SDS011;63468;52.058;4.824;2023-05-28T12:07:48;16.00;;;13.27;;
74908;SDS011;63468;52.058;4.824;2023-05-28T12:10:18;17.20;;;13.05;;
74908;SDS011;63468;52.058;4.824;2023-05-28T12:12:46;18.23;;;12.75;;
74908;SDS011;63468;52.058;4.824;2023-05-28T12:15:12;17.23;;;12.85;;
74908;SDS011;63468;52.058;4.824;2023-05-28T12:17:41;14.23;;;12.48;;
74908;SDS011;63468;52.058;4.824;2023-05-28T12:22:37;16.50;;;13.30;;
74908;SDS011;63468;52.058;4.824;2023-05-28T12:25:03;16.73;;;13.15;;
74908;SDS011;63468;52.058;4.824;2023-05-28T12:27:29;20.67;;;13.18;;
74908;SDS011;63468;52.058;4.824;2023-05-28T12:29:54;19.30;;;13.48;;
74908;SDS011;63468;52.058;4.824;2023-05-28T12:32:20;18.60;;;13.18;;
74908;SDS011;63468;52.058;4.824;2023-05-28T12:34:45;16.20;;;12.70;;
74908;SDS011;63468;52.058;4.824;2023-05-28T12:37:10;17.70;;;12.45;;
74908;SDS011;63468;52.058;4.824;2023-05-28T12:39:36;16.63;;;12.20;;
74908;SDS011;63468;52.058;4.824;2023-05-28T12:42:02;18.55;;;13.40;;
74908;SDS011;63468;52.058;4.824;2023-05-28T12:44:28;17.02;;;12.30;;
74908;SDS011;63468;52.058;4.824;2023-05-28T12:46:53;18.95;;;13.63;;
74908;SDS011;63468;52.058;4.824;2023-05-28T12:49:18;15.57;;;11.80;;
74908;SDS011;63468;52.058;4.824;2023-05-28T12:51:44;24.00;;;13.02;;
74908;SDS011;63468;52.058;4.824;2023-05-28T12:54:09;16.83;;;12.77;;
74908;SDS011;63468;52.058;4.824;2023-05-28T12:56:35;13.80;;;12.25;;
74908;SDS011;63468;52.058;4.824;2023-05-28T12:59:00;17.33;;;11.85;;
74908;SDS011;63468;52.058;4.824;2023-05-28T13:01:26;17.58;;;12.95;;
74908;SDS011;63468;52.058;4.824;2023-05-28T13:03:51;15.57;;;12.25;;
74908;SDS011;63468;52.058;4.824;2023-05-28T13:06:17;18.85;;;12.88;;
74908;SDS011;63468;52.058;4.824;2023-05-28T13:08:43;16.80;;;12.18;;
74908;SDS011;63468;52.058;4.824;2023-05-28T13:11:08;17.35;;;13.23;;
74908;SDS011;63468;52.058;4.824;2023-05-28T13:13:34;16.20;;;12.32;;
74908;SDS011;63468;52.058;4.824;2023-05-28T13:15:59;15.75;;;12.27;;
74908;SDS011;63468;52.058;4.824;2023-05-28T13:18:24;18.33;;;12.32;;
74908;SDS011;63468;52.058;4.824;2023-05-28T13:20:50;18.35;;;13.02;;
74908;SDS011;63468;52.058;4.824;2023-05-28T13:23:15;13.98;;;12.48;;
74908;SDS011;63468;52.058;4.824;2023-05-28T13:25:40;14.60;;;12.57;;
74908;SDS011;63468;52.058;4.824;2023-05-28T13:28:06;14.63;;;12.07;;
74908;SDS011;63468;52.058;4.824;2023-05-28T13:30:31;15.82;;;12.18;;
74908;SDS011;63468;52.058;4.824;2023-05-28T13:32:56;16.05;;;11.90;;
74908;SDS011;63468;52.058;4.824;2023-05-28T13:35:22;15.20;;;11.88;;
74908;SDS011;63468;52.058;4.824;2023-05-28T13:37:49;15.23;;;12.10;;
74908;SDS011;63468;52.058;4.824;2023-05-28T13:40:14;19.02;;;12.43;;
74908;SDS011;63468;52.058;4.824;2023-05-28T13:42:40;17.65;;;12.73;;
74908;SDS011;63468;52.058;4.824;2023-05-28T13:45:06;16.65;;;12.02;;
74908;SDS011;63468;52.058;4.824;2023-05-28T13:47:32;14.90;;;12.40;;
74908;SDS011;63468;52.058;4.824;2023-05-28T13:49:58;13.70;;;11.27;;
74908;SDS011;63468;52.058;4.824;2023-05-28T13:52:23;17.75;;;13.05;;
74908;SDS011;63468;52.058;4.824;2023-05-28T13:54:49;14.35;;;11.57;;
74908;SDS011;63468;52.058;4.824;2023-05-28T13:57:15;17.13;;;11.93;;
74908;SDS011;63468;52.058;4.824;2023-05-28T13:59:40;14.38;;;12.30;;
74908;SDS011;63468;52.058;4.824;2023-05-28T14:02:05;14.63;;;13.05;;
74908;SDS011;63468;52.058;4.824;2023-05-28T14:04:31;16.38;;;12.07;;
74908;SDS011;63468;52.058;4.824;2023-05-28T14:06:57;13.75;;;12.32;;
74908;SDS011;63468;52.058;4.824;2023-05-28T14:09:22;14.70;;;12.05;;
74908;SDS011;63468;52.058;4.824;2023-05-28T14:11:47;14.90;;;12.25;;
74908;SDS011;63468;52.058;4.824;2023-05-28T14:14:13;16.30;;;11.48;;
74908;SDS011;63468;52.058;4.824;2023-05-28T14:16:38;17.15;;;13.85;;
74908;SDS011;63468;52.058;4.824;2023-05-28T14:19:04;12.98;;;11.60;;
74908;SDS011;63468;52.058;4.824;2023-05-28T14:21:29;15.80;;;12.38;;
74908;SDS011;63468;52.058;4.824;2023-05-28T14:23:55;14.27;;;11.20;;
74908;SDS011;63468;52.058;4.824;2023-05-28T14:26:20;13.27;;;11.70;;
74908;SDS011;63468;52.058;4.824;2023-05-28T14:28:45;15.13;;;11.93;;